Terminal Aerodrome Forecast
Issued by NWS

Home | Current Version | Previous Version | Text Only | Print | Product List | Glossary Off
Versions: 1 2 3 4 5 6 7 8 9 10 11 12 13 14 15 16 17 18 19 20 21 22 23 24 25 26 27

854
FTUS42 KMHX 021730
TAFOAJ
TAF
KOAJ 021730Z 0218/0318 22011G17KT P6SM BKN040
     FM022100 19012KT P6SM VCTS BKN040CB
     FM030300 19008KT P6SM BKN040
     FM030700 20007KT 5SM -SHRA SCT010 BKN025
     FM031400 21009G17KT 6SM -SHRA BKN035
      AMD LTD TO CLD VIS AND WIND=

USA.gov is the U.S. government's official web portal to all federal, state and local government web resources and services.